sensor_id;sensor_type;location;lat;lon;timestamp;pressure;altitude;pressure_sealevel;temperature;humidity
5877;BME280;2964;42.144;24.730;2023-03-22T00:02:13;144522.25;;;11.83;100.00
5877;BME280;2964;42.144;24.730;2023-03-22T00:04:41;144518.47;;;11.82;100.00
5877;BME280;2964;42.144;24.730;2023-03-22T00:07:07;144488.31;;;11.69;100.00
5877;BME280;2964;42.144;24.730;2023-03-22T00:09:36;144499.59;;;11.74;100.00
5877;BME280;2964;42.144;24.730;2023-03-22T00:12:03;144459.38;;;11.57;100.00
5877;BME280;2964;42.144;24.730;2023-03-22T00:14:30;144460.63;;;11.58;100.00
5877;BME280;2964;42.144;24.730;2023-03-22T00:16:56;144480.75;;;11.66;100.00
5877;BME280;2964;42.144;24.730;2023-03-22T00:19:23;144451.81;;;11.54;100.00
5877;BME280;2964;42.144;24.730;2023-03-22T00:21:50;144453.09;;;11.55;100.00
5877;BME280;2964;42.144;24.730;2023-03-22T00:24:17;144416.66;;;11.40;100.00
5877;BME280;2964;42.144;24.730;2023-03-22T00:26:46;144430.50;;;11.46;100.00
5877;BME280;2964;42.144;24.730;2023-03-22T00:29:13;144435.50;;;11.48;100.00
5877;BME280;2964;42.144;24.730;2023-03-22T00:31:40;144397.78;;;11.32;100.00
5877;BME280;2964;42.144;24.730;2023-03-22T00:34:07;144323.66;;;11.02;100.00
5877;BME280;2964;42.144;24.730;2023-03-22T00:36:33;144422.94;;;11.43;100.00
5877;BME280;2964;42.144;24.730;2023-03-22T00:39:02;144361.31;;;11.17;100.00
5877;BME280;2964;42.144;24.730;2023-03-22T00:41:29;144427.94;;;11.45;100.00
5877;BME280;2964;42.144;24.730;2023-03-22T00:43:57;144407.84;;;11.36;100.00
5877;BME280;2964;42.144;24.730;2023-03-22T00:46:23;144426.72;;;11.44;100.00
5877;BME280;2964;42.144;24.730;2023-03-22T00:48:50;144435.50;;;11.48;100.00
5877;BME280;2964;42.144;24.730;2023-03-22T00:51:17;144410.34;;;11.37;100.00
5877;BME280;2964;42.144;24.730;2023-03-22T00:53:43;144401.56;;;11.34;100.00
5877;BME280;2964;42.144;24.730;2023-03-22T00:56:14;144411.63;;;11.38;100.00
5877;BME280;2964;42.144;24.730;2023-03-22T00:58:40;144402.84;;;11.34;100.00
5877;BME280;2964;42.144;24.730;2023-03-22T01:01:09;144426.72;;;11.44;100.00
5877;BME280;2964;42.144;24.730;2023-03-22T01:03:38;144402.84;;;11.34;100.00
5877;BME280;2964;42.144;24.730;2023-03-22T01:06:05;144411.63;;;11.38;100.00
5877;BME280;2964;42.144;24.730;2023-03-22T01:08:32;144395.28;;;11.31;100.00
5877;BME280;2964;42.144;24.730;2023-03-22T01:11:03;144422.94;;;11.43;100.00
5877;BME280;2964;42.144;24.730;2023-03-22T01:13:30;144401.56;;;11.34;100.00
5877;BME280;2964;42.144;24.730;2023-03-22T01:15:57;144397.78;;;11.32;100.00
5877;BME280;2964;42.144;24.730;2023-03-22T01:18:25;144387.72;;;11.28;100.00
5877;BME280;2964;42.144;24.730;2023-03-22T01:20:51;144343.78;;;11.10;100.00
5877;BME280;2964;42.144;24.730;2023-03-22T01:23:18;144370.13;;;11.21;100.00
5877;BME280;2964;42.144;24.730;2023-03-22T01:25:45;144356.31;;;11.15;100.00
5877;BME280;2964;42.144;24.730;2023-03-22T01:28:11;144338.72;;;11.08;100.00
5877;BME280;2964;42.144;24.730;2023-03-22T01:30:38;144336.22;;;11.07;100.00
5877;BME280;2964;42.144;24.730;2023-03-22T01:33:05;144331.19;;;11.05;100.00
5877;BME280;2964;42.144;24.730;2023-03-22T01:35:34;144324.88;;;11.02;100.00
5877;BME280;2964;42.144;24.730;2023-03-22T01:38:00;144294.75;;;10.90;100.00
5877;BME280;2964;42.144;24.730;2023-03-22T01:40:27;144264.59;;;10.78;100.00
5877;BME280;2964;42.144;24.730;2023-03-22T01:42:54;144277.16;;;10.83;100.00
5877;BME280;2964;42.144;24.730;2023-03-22T01:45:40;144245.75;;;10.70;100.00
5877;BME280;2964;42.144;24.730;2023-03-22T01:48:28;144219.38;;;10.59;100.00
5877;BME280;2964;42.144;24.730;2023-03-22T01:51:04;144206.81;;;10.54;100.00
5877;BME280;2964;42.144;24.730;2023-03-22T01:53:34;144189.22;;;10.47;100.00
5877;BME280;2964;42.144;24.730;2023-03-22T01:56:02;144195.53;;;10.50;100.00
5877;BME280;2964;42.144;24.730;2023-03-22T01:58:30;144182.94;;;10.45;100.00
5877;BME280;2964;42.144;24.730;2023-03-22T02:00:57;144149.03;;;10.31;100.00
5877;BME280;2964;42.144;24.730;2023-03-22T02:03:29;144133.91;;;10.24;100.00
5877;BME280;2964;42.144;24.730;2023-03-22T02:05:57;144154.03;;;10.33;100.00
5877;BME280;2964;42.144;24.730;2023-03-22T02:08:26;144151.56;;;10.32;100.00
5877;BME280;2964;42.144;24.730;2023-03-22T02:10:53;144128.91;;;10.22;100.00
5877;BME280;2964;42.144;24.730;2023-03-22T02:13:41;144133.91;;;10.24;100.00
5877;BME280;2964;42.144;24.730;2023-03-22T02:16:24;144149.03;;;10.31;100.00
5877;BME280;2964;42.144;24.730;2023-03-22T02:19:06;144143.97;;;10.29;100.00
5877;BME280;2964;42.144;24.730;2023-03-22T02:22:03;144105.06;;;10.13;100.00
5877;BME280;2964;42.144;24.730;2023-03-22T02:25:11;144103.78;;;10.12;100.00
5877;BME280;2964;42.144;24.730;2023-03-22T02:28:03;144146.50;;;10.30;100.00
5877;BME280;2964;42.144;24.730;2023-03-22T02:30:59;144169.16;;;10.39;100.00
5877;BME280;2964;42.144;24.730;2023-03-22T02:33:44;144185.44;;;10.46;100.00
5877;BME280;2964;42.144;24.730;2023-03-22T02:36:35;144175.41;;;10.41;100.00
5877;BME280;2964;42.144;24.730;2023-03-22T02:39:16;144130.16;;;10.23;100.00
5877;BME280;2964;42.144;24.730;2023-03-22T02:41:59;144154.03;;;10.33;100.00
5877;BME280;2964;42.144;24.730;2023-03-22T02:44:39;144101.28;;;10.11;100.00
5877;BME280;2964;42.144;24.730;2023-03-22T02:47:12;144123.88;;;10.20;100.00
5877;BME280;2964;42.144;24.730;2023-03-22T02:49:45;144126.38;;;10.21;100.00
5877;BME280;2964;42.144;24.730;2023-03-22T02:52:18;144089.97;;;10.07;100.00
5877;BME280;2964;42.144;24.730;2023-03-22T02:54:54;144106.31;;;10.13;100.00
5877;BME280;2964;42.144;24.730;2023-03-22T02:57:27;144110.06;;;10.15;100.00
5877;BME280;2964;42.144;24.730;2023-03-22T02:59:56;144138.94;;;10.27;100.00
5877;BME280;2964;42.144;24.730;2023-03-22T03:02:25;144156.56;;;10.34;100.00
5877;BME280;2964;42.144;24.730;2023-03-22T03:04:53;144141.47;;;10.28;100.00
5877;BME280;2964;42.144;24.730;2023-03-22T03:07:23;144157.81;;;10.34;100.00
5877;BME280;2964;42.144;24.730;2023-03-22T03:09:53;144199.31;;;10.51;100.00
5877;BME280;2964;42.144;24.730;2023-03-22T03:12:22;144166.59;;;10.38;100.00
5877;BME280;2964;42.144;24.730;2023-03-22T03:14:49;144084.94;;;10.04;100.00
5877;BME280;2964;42.144;24.730;2023-03-22T03:17:32;144071.13;;;9.99;100.00
5877;BME280;2964;42.144;24.730;2023-03-22T03:20:13;144159.09;;;10.35;100.00
5877;BME280;2964;42.144;24.730;2023-03-22T03:22:49;144150.31;;;10.31;100.00
5877;BME280;2964;42.144;24.730;2023-03-22T03:25:24;144191.75;;;10.48;100.00
5877;BME280;2964;42.144;24.730;2023-03-22T03:27:58;144156.56;;;10.34;100.00
5877;BME280;2964;42.144;24.730;2023-03-22T03:30:33;144160.34;;;10.35;100.00
5877;BME280;2964;42.144;24.730;2023-03-22T03:33:03;144176.66;;;10.42;100.00
5877;BME280;2964;42.144;24.730;2023-03-22T03:35:37;144123.88;;;10.20;100.00
5877;BME280;2964;42.144;24.730;2023-03-22T03:38:09;144151.56;;;10.32;100.00
5877;BME280;2964;42.144;24.730;2023-03-22T03:40:41;144076.16;;;10.01;100.00
5877;BME280;2964;42.144;24.730;2023-03-22T03:43:10;144141.47;;;10.28;100.00
5877;BME280;2964;42.144;24.730;2023-03-22T03:45:38;144187.97;;;10.47;100.00
5877;BME280;2964;42.144;24.730;2023-03-22T03:48:08;144174.16;;;10.41;100.00
5877;BME280;2964;42.144;24.730;2023-03-22T03:50:36;144126.38;;;10.21;100.00
5877;BME280;2964;42.144;24.730;2023-03-22T03:53:03;144088.72;;;10.06;100.00
5877;BME280;2964;42.144;24.730;2023-03-22T03:55:30;144048.53;;;9.90;100.00
5877;BME280;2964;42.144;24.730;2023-03-22T03:57:59;144083.69;;;10.04;100.00
5877;BME280;2964;42.144;24.730;2023-03-22T04:00:26;144088.72;;;10.06;100.00
5877;BME280;2964;42.144;24.730;2023-03-22T04:02:53;144105.06;;;10.13;100.00
5877;BME280;2964;42.144;24.730;2023-03-22T04:05:20;144086.19;;;10.05;100.00
5877;BME280;2964;42.144;24.730;2023-03-22T04:07:47;144074.91;;;10.00;100.00
5877;BME280;2964;42.144;24.730;2023-03-22T04:10:14;143993.31;;;9.67;100.00
5877;BME280;2964;42.144;24.730;2023-03-22T04:12:40;144037.25;;;9.85;100.00
5877;BME280;2964;42.144;24.730;2023-03-22T04:15:09;144044.75;;;9.88;100.00
5877;BME280;2964;42.144;24.730;2023-03-22T04:17:37;144086.19;;;10.05;100.00
5877;BME280;2964;42.144;24.730;2023-03-22T04:20:05;144020.94;;;9.78;100.00
5877;BME280;2964;42.144;24.730;2023-03-22T04:22:32;144015.91;;;9.76;100.00
5877;BME280;2964;42.144;24.730;2023-03-22T04:24:59;143905.44;;;9.31;100.00
5877;BME280;2964;42.144;24.730;2023-03-22T04:27:26;143887.88;;;9.24;100.00
5877;BME280;2964;42.144;24.730;2023-03-22T04:29:53;143880.38;;;9.21;100.00
5877;BME280;2964;42.144;24.730;2023-03-22T04:32:22;143885.38;;;9.23;100.00
5877;BME280;2964;42.144;24.730;2023-03-22T04:34:51;143902.97;;;9.30;100.00
5877;BME280;2964;42.144;24.730;2023-03-22T04:37:18;143946.91;;;9.48;100.00
5877;BME280;2964;42.144;24.730;2023-03-22T04:39:47;143890.41;;;9.25;100.00
5877;BME280;2964;42.144;24.730;2023-03-22T04:42:13;143881.63;;;9.21;100.00
5877;BME280;2964;42.144;24.730;2023-03-22T04:44:40;143954.41;;;9.51;100.00
5877;BME280;2964;42.144;24.730;2023-03-22T04:47:06;143978.28;;;9.61;100.00
5877;BME280;2964;42.144;24.730;2023-03-22T04:49:35;143974.50;;;9.59;100.00
5877;BME280;2964;42.144;24.730;2023-03-22T04:52:01;143914.22;;;9.35;100.00
5877;BME280;2964;42.144;24.730;2023-03-22T04:54:28;143913.00;;;9.34;100.00
5877;BME280;2964;42.144;24.730;2023-03-22T04:56:55;143960.69;;;9.54;100.00
5877;BME280;2964;42.144;24.730;2023-03-22T04:59:22;143946.91;;;9.48;100.00
5877;BME280;2964;42.144;24.730;2023-03-22T05:01:49;143914.22;;;9.35;100.00
5877;BME280;2964;42.144;24.730;2023-03-22T05:04:17;143913.00;;;9.34;100.00
5877;BME280;2964;42.144;24.730;2023-03-22T05:06:45;143913.00;;;9.34;100.00
5877;BME280;2964;42.144;24.730;2023-03-22T05:09:13;143941.84;;;9.46;100.00
5877;BME280;2964;42.144;24.730;2023-03-22T05:11:40;143884.16;;;9.22;100.00
5877;BME280;2964;42.144;24.730;2023-03-22T05:14:07;143895.41;;;9.27;100.00
5877;BME280;2964;42.144;24.730;2023-03-22T05:16:34;143933.03;;;9.42;100.00
5877;BME280;2964;42.144;24.730;2023-03-22T05:19:01;144012.13;;;9.75;100.00
5877;BME280;2964;42.144;24.730;2023-03-22T05:21:29;143973.22;;;9.59;100.00
5877;BME280;2964;42.144;24.730;2023-03-22T05:24:03;143975.75;;;9.60;100.00
5877;BME280;2964;42.144;24.730;2023-03-22T05:26:30;143945.59;;;9.47;100.00
5877;BME280;2964;42.144;24.730;2023-03-22T05:28:56;143978.28;;;9.61;100.00
5877;BME280;2964;42.144;24.730;2023-03-22T05:31:23;143982.00;;;9.62;100.00
5877;BME280;2964;42.144;24.730;2023-03-22T05:33:53;144015.91;;;9.76;100.00
5877;BME280;2964;42.144;24.730;2023-03-22T05:36:20;144136.44;;;10.26;100.00
5877;BME280;2964;42.144;24.730;2023-03-22T05:38:48;144074.91;;;10.00;100.00
5877;BME280;2964;42.144;24.730;2023-03-22T05:41:16;144066.13;;;9.97;100.00
5877;BME280;2964;42.144;24.730;2023-03-22T05:43:43;144041.00;;;9.86;100.00
5877;BME280;2964;42.144;24.730;2023-03-22T05:46:11;144190.50;;;10.48;100.00
5877;BME280;2964;42.144;24.730;2023-03-22T05:48:39;144106.31;;;10.13;100.00
5877;BME280;2964;42.144;24.730;2023-03-22T05:51:06;144093.75;;;10.08;100.00
5877;BME280;2964;42.144;24.730;2023-03-22T05:53:33;144093.75;;;10.08;100.00
5877;BME280;2964;42.144;24.730;2023-03-22T05:56:00;144053.56;;;9.92;100.00
5877;BME280;2964;42.144;24.730;2023-03-22T05:58:28;144102.53;;;10.12;100.00
5877;BME280;2964;42.144;24.730;2023-03-22T06:00:55;144179.19;;;10.43;100.00
5877;BME280;2964;42.144;24.730;2023-03-22T06:03:25;144156.56;;;10.34;100.00
5877;BME280;2964;42.144;24.730;2023-03-22T06:05:52;144049.78;;;9.90;100.00
5877;BME280;2964;42.144;24.730;2023-03-22T06:08:19;144035.97;;;9.84;100.00
5877;BME280;2964;42.144;24.730;2023-03-22T06:10:48;144141.47;;;10.28;100.00
5877;BME280;2964;42.144;24.730;2023-03-22T06:13:15;144167.91;;;10.38;100.00
5877;BME280;2964;42.144;24.730;2023-03-22T06:15:43;144169.16;;;10.39;100.00
5877;BME280;2964;42.144;24.730;2023-03-22T06:18:10;144169.16;;;10.39;100.00
5877;BME280;2964;42.144;24.730;2023-03-22T06:20:36;144214.34;;;10.57;100.00
5877;BME280;2964;42.144;24.730;2023-03-22T06:23:03;144206.81;;;10.54;100.00
5877;BME280;2964;42.144;24.730;2023-03-22T06:25:30;144126.38;;;10.21;100.00
5877;BME280;2964;42.144;24.730;2023-03-22T06:27:57;144155.31;;;10.33;100.00
5877;BME280;2964;42.144;24.730;2023-03-22T06:30:24;144176.66;;;10.42;100.00
5877;BME280;2964;42.144;24.730;2023-03-22T06:32:52;144083.69;;;10.04;100.00
5877;BME280;2964;42.144;24.730;2023-03-22T06:35:19;144143.97;;;10.29;100.00
5877;BME280;2964;42.144;24.730;2023-03-22T06:37:46;144225.63;;;10.62;100.00
5877;BME280;2964;42.144;24.730;2023-03-22T06:40:13;144156.56;;;10.34;100.00
5877;BME280;2964;42.144;24.730;2023-03-22T06:42:40;144123.88;;;10.20;100.00
5877;BME280;2964;42.144;24.730;2023-03-22T06:45:07;144154.03;;;10.33;100.00
5877;BME280;2964;42.144;24.730;2023-03-22T06:47:34;144073.66;;;10.00;100.00
5877;BME280;2964;42.144;24.730;2023-03-22T06:50:03;144091.25;;;10.07;100.00
5877;BME280;2964;42.144;24.730;2023-03-22T06:52:29;144027.19;;;9.81;100.00
5877;BME280;2964;42.144;24.730;2023-03-22T06:54:56;144009.59;;;9.74;100.00
5877;BME280;2964;42.144;24.730;2023-03-22T06:57:23;144108.78;;;10.14;100.00
5877;BME280;2964;42.144;24.730;2023-03-22T06:59:50;144107.53;;;10.14;100.00
5877;BME280;2964;42.144;24.730;2023-03-22T07:02:16;144101.28;;;10.11;100.00
5877;BME280;2964;42.144;24.730;2023-03-22T07:04:44;144181.72;;;10.44;100.00
5877;BME280;2964;42.144;24.730;2023-03-22T07:07:13;144175.41;;;10.41;100.00
5877;BME280;2964;42.144;24.730;2023-03-22T07:09:39;144205.56;;;10.54;100.00
5877;BME280;2964;42.144;24.730;2023-03-22T07:12:06;144159.09;;;10.35;100.00
5877;BME280;2964;42.144;24.730;2023-03-22T07:14:34;144180.41;;;10.43;100.00
5877;BME280;2964;42.144;24.730;2023-03-22T07:17:01;144120.13;;;10.19;100.00
5877;BME280;2964;42.144;24.730;2023-03-22T07:19:27;144169.16;;;10.39;100.00
5877;BME280;2964;42.144;24.730;2023-03-22T07:21:54;144169.16;;;10.39;100.00
5877;BME280;2964;42.144;24.730;2023-03-22T07:24:22;144297.25;;;10.91;100.00
5877;BME280;2964;42.144;24.730;2023-03-22T07:26:49;144239.44;;;10.68;100.00
5877;BME280;2964;42.144;24.730;2023-03-22T07:29:15;144235.72;;;10.66;100.00
5877;BME280;2964;42.144;24.730;2023-03-22T07:31:42;144225.63;;;10.62;100.00
5877;BME280;2964;42.144;24.730;2023-03-22T07:34:10;144356.31;;;11.15;100.00
5877;BME280;2964;42.144;24.730;2023-03-22T07:36:36;144358.84;;;11.16;100.00
5877;BME280;2964;42.144;24.730;2023-03-22T07:39:03;144304.81;;;10.94;100.00
5877;BME280;2964;42.144;24.730;2023-03-22T07:41:31;144357.59;;;11.16;100.00
5877;BME280;2964;42.144;24.730;2023-03-22T07:43:58;144383.94;;;11.27;100.00
5877;BME280;2964;42.144;24.730;2023-03-22T07:46:25;144382.72;;;11.26;100.00
5877;BME280;2964;42.144;24.730;2023-03-22T07:48:52;144270.88;;;10.80;100.00
5877;BME280;2964;42.144;24.730;2023-03-22T07:51:18;144347.50;;;11.12;100.00
5877;BME280;2964;42.144;24.730;2023-03-22T07:53:45;144429.19;;;11.45;100.00
5877;BME280;2964;42.144;24.730;2023-03-22T07:56:12;144377.69;;;11.24;100.00
5877;BME280;2964;42.144;24.730;2023-03-22T07:58:40;144383.94;;;11.27;100.00
5877;BME280;2964;42.144;24.730;2023-03-22T08:01:07;144396.53;;;11.32;100.00
5877;BME280;2964;42.144;24.730;2023-03-22T08:03:34;144435.50;;;11.48;100.00
5877;BME280;2964;42.144;24.730;2023-03-22T08:06:01;144422.94;;;11.43;100.00
5877;BME280;2964;42.144;24.730;2023-03-22T08:08:30;144473.19;;;11.63;100.00
5877;BME280;2964;42.144;24.730;2023-03-22T08:10:57;144531.03;;;11.87;100.00
5877;BME280;2964;42.144;24.730;2023-03-22T08:13:24;144476.97;;;11.65;100.00
5877;BME280;2964;42.144;24.730;2023-03-22T08:15:52;144517.22;;;11.81;100.00
5877;BME280;2964;42.144;24.730;2023-03-22T08:18:19;144508.41;;;11.77;100.00
5877;BME280;2964;42.144;24.730;2023-03-22T08:20:46;144543.69;;;11.92;100.00
5877;BME280;2964;42.144;24.730;2023-03-22T08:23:18;144551.19;;;11.95;100.00
5877;BME280;2964;42.144;24.730;2023-03-22T08:25:44;144439.28;;;11.49;100.00
5877;BME280;2964;42.144;24.730;2023-03-22T08:28:11;144425.47;;;11.44;100.00
5877;BME280;2964;42.144;24.730;2023-03-22T08:30:40;144427.94;;;11.45;100.00
5877;BME280;2964;42.144;24.730;2023-03-22T08:33:08;144419.16;;;11.41;100.00
5877;BME280;2964;42.144;24.730;2023-03-22T08:35:35;144434.25;;;11.47;100.00
5877;BME280;2964;42.144;24.730;2023-03-22T08:38:01;144430.50;;;11.46;100.00
5877;BME280;2964;42.144;24.730;2023-03-22T08:40:28;144397.78;;;11.32;100.00
5877;BME280;2964;42.144;24.730;2023-03-22T08:42:55;144425.47;;;11.44;100.00
5877;BME280;2964;42.144;24.730;2023-03-22T08:45:21;144476.97;;;11.65;100.00
5877;BME280;2964;42.144;24.730;2023-03-22T08:47:48;144411.63;;;11.38;100.00
5877;BME280;2964;42.144;24.730;2023-03-22T08:50:16;144419.16;;;11.41;100.00
5877;BME280;2964;42.144;24.730;2023-03-22T08:52:43;144412.88;;;11.38;100.00
5877;BME280;2964;42.144;24.730;2023-03-22T08:55:10;144422.94;;;11.43;100.00
5877;BME280;2964;42.144;24.730;2023-03-22T08:57:36;144523.50;;;11.84;100.00
5877;BME280;2964;42.144;24.730;2023-03-22T09:00:04;144513.44;;;11.79;100.00
5877;BME280;2964;42.144;24.730;2023-03-22T09:02:32;144541.13;;;11.91;100.00
5877;BME280;2964;42.144;24.730;2023-03-22T09:04:59;144619.09;;;12.23;100.00
5877;BME280;2964;42.144;24.730;2023-03-22T09:07:27;144531.03;;;11.87;100.00
5877;BME280;2964;42.144;24.730;2023-03-22T09:09:54;144597.75;;;12.14;100.00
5877;BME280;2964;42.144;24.730;2023-03-22T09:12:21;144591.44;;;12.11;100.00
5877;BME280;2964;42.144;24.730;2023-03-22T09:14:47;144650.53;;;12.35;100.00
5877;BME280;2964;42.144;24.730;2023-03-22T09:17:14;144692.09;;;12.52;100.00
5877;BME280;2964;42.144;24.730;2023-03-22T09:19:43;144766.31;;;12.83;100.00
5877;BME280;2964;42.144;24.730;2023-03-22T09:22:10;144795.22;;;12.94;100.00
5877;BME280;2964;42.144;24.730;2023-03-22T09:24:38;144850.66;;;13.17;100.00
5877;BME280;2964;42.144;24.730;2023-03-22T09:27:05;144903.53;;;13.39;100.00
5877;BME280;2964;42.144;24.730;2023-03-22T09:29:32;144877.09;;;13.28;100.00
5877;BME280;2964;42.144;24.730;2023-03-22T09:31:59;144875.78;;;13.27;100.00
5877;BME280;2964;42.144;24.730;2023-03-22T09:34:25;144858.16;;;13.20;100.00
5877;BME280;2964;42.144;24.730;2023-03-22T09:36:52;144834.28;;;13.10;100.00
5877;BME280;2964;42.144;24.730;2023-03-22T09:39:19;144693.34;;;12.53;100.00
5877;BME280;2964;42.144;24.730;2023-03-22T09:41:52;144785.19;;;12.90;100.00
5877;BME280;2964;42.144;24.730;2023-03-22T09:44:23;144795.22;;;12.94;100.00
5877;BME280;2964;42.144;24.730;2023-03-22T09:46:54;144820.44;;;13.05;100.00
5877;BME280;2964;42.144;24.730;2023-03-22T09:49:27;144897.25;;;13.36;100.00
5877;BME280;2964;42.144;24.730;2023-03-22T09:51:54;144947.59;;;13.57;100.00
5877;BME280;2964;42.144;24.730;2023-03-22T09:54:28;144947.59;;;13.57;100.00
5877;BME280;2964;42.144;24.730;2023-03-22T09:57:02;145025.66;;;13.88;100.00
5877;BME280;2964;42.144;24.730;2023-03-22T09:59:35;144966.47;;;13.64;100.00
5877;BME280;2964;42.144;24.730;2023-03-22T10:02:22;145039.50;;;13.94;100.00
5877;BME280;2964;42.144;24.730;2023-03-22T10:04:57;144945.13;;;13.56;99.79
5877;BME280;2964;42.144;24.730;2023-03-22T10:07:30;144982.88;;;13.71;100.00
5877;BME280;2964;42.144;24.730;2023-03-22T10:10:10;145059.69;;;14.02;100.00
5877;BME280;2964;42.144;24.730;2023-03-22T10:12:50;145193.19;;;14.57;96.91
5877;BME280;2964;42.144;24.730;2023-03-22T10:15:23;145193.19;;;14.57;97.55
5877;BME280;2964;42.144;24.730;2023-03-22T10:17:54;145123.91;;;14.28;99.62
5877;BME280;2964;42.144;24.730;2023-03-22T10:20:29;145059.69;;;14.02;98.14
5877;BME280;2964;42.144;24.730;2023-03-22T10:22:58;145045.84;;;13.97;97.63
5877;BME280;2964;42.144;24.730;2023-03-22T10:25:32;145071.00;;;14.07;98.68
5877;BME280;2964;42.144;24.730;2023-03-22T10:28:11;145157.97;;;14.42;98.61
5877;BME280;2964;42.144;24.730;2023-03-22T10:30:40;145156.66;;;14.42;96.78
5877;BME280;2964;42.144;24.730;2023-03-22T10:33:12;145189.47;;;14.55;96.80
5877;BME280;2964;42.144;24.730;2023-03-22T10:35:40;145261.28;;;14.84;95.25
5877;BME280;2964;42.144;24.730;2023-03-22T10:38:17;145176.84;;;14.50;97.33
5877;BME280;2964;42.144;24.730;2023-03-22T10:40:45;145261.28;;;14.84;96.61
5877;BME280;2964;42.144;24.730;2023-03-22T10:43:17;145329.34;;;15.12;93.27
5877;BME280;2964;42.144;24.730;2023-03-22T10:45:46;145339.47;;;15.16;92.21
5877;BME280;2964;42.144;24.730;2023-03-22T10:48:23;145389.91;;;15.37;92.24
5877;BME280;2964;42.144;24.730;2023-03-22T10:50:50;145450.41;;;15.61;90.08
5877;BME280;2964;42.144;24.730;2023-03-22T10:53:25;145456.75;;;15.64;90.23
5877;BME280;2964;42.144;24.730;2023-03-22T10:55:53;145381.06;;;15.33;89.25
5877;BME280;2964;42.144;24.730;2023-03-22T10:58:25;145417.63;;;15.48;90.45
5877;BME280;2964;42.144;24.730;2023-03-22T11:00:56;145377.28;;;15.32;87.53
5877;BME280;2964;42.144;24.730;2023-03-22T11:03:29;145389.91;;;15.37;87.91
5877;BME280;2964;42.144;24.730;2023-03-22T11:06:00;145362.16;;;15.25;87.04
5877;BME280;2964;42.144;24.730;2023-03-22T11:08:27;145364.66;;;15.27;88.80
5877;BME280;2964;42.144;24.730;2023-03-22T11:10:54;145388.66;;;15.36;86.80
5877;BME280;2964;42.144;24.730;2023-03-22T11:13:26;145379.81;;;15.33;87.74
5877;BME280;2964;42.144;24.730;2023-03-22T11:15:57;145369.69;;;15.29;86.76
5877;BME280;2964;42.144;24.730;2023-03-22T11:18:29;145359.63;;;15.24;84.98
5877;BME280;2964;42.144;24.730;2023-03-22T11:20:58;145362.16;;;15.25;85.21
5877;BME280;2964;42.144;24.730;2023-03-22T11:23:26;145359.63;;;15.24;86.78
5877;BME280;2964;42.144;24.730;2023-03-22T11:25:55;145445.38;;;15.59;85.85
5877;BME280;2964;42.144;24.730;2023-03-22T11:28:27;145529.94;;;15.94;84.38
5877;BME280;2964;42.144;24.730;2023-03-22T11:31:04;145468.06;;;15.69;83.10
5877;BME280;2964;42.144;24.730;2023-03-22T11:33:32;145441.56;;;15.58;84.68
5877;BME280;2964;42.144;24.730;2023-03-22T11:36:01;145463.03;;;15.67;84.94
5877;BME280;2964;42.144;24.730;2023-03-22T11:38:35;145487.03;;;15.76;84.86
5877;BME280;2964;42.144;24.730;2023-03-22T11:41:06;145545.06;;;16.00;82.63
5877;BME280;2964;42.144;24.730;2023-03-22T11:43:35;145412.59;;;15.46;84.69
5877;BME280;2964;42.144;24.730;2023-03-22T11:46:03;145455.44;;;15.63;84.68
5877;BME280;2964;42.144;24.730;2023-03-22T11:48:31;145445.38;;;15.59;83.50
5877;BME280;2964;42.144;24.730;2023-03-22T11:51:06;145541.25;;;15.98;83.32
5877;BME280;2964;42.144;24.730;2023-03-22T11:53:35;145483.22;;;15.75;82.32
5877;BME280;2964;42.144;24.730;2023-03-22T11:56:04;145488.31;;;15.77;80.47
5877;BME280;2964;42.144;24.730;2023-03-22T11:59:03;145561.47;;;16.07;81.47
5877;BME280;2964;42.144;24.730;2023-03-22T12:01:36;145478.13;;;15.73;77.88
5877;BME280;2964;42.144;24.730;2023-03-22T12:04:08;145389.91;;;15.37;80.27
5877;BME280;2964;42.144;24.730;2023-03-22T12:06:39;145450.41;;;15.61;82.18
5877;BME280;2964;42.144;24.730;2023-03-22T12:09:11;145460.47;;;15.66;81.87
5877;BME280;2964;42.144;24.730;2023-03-22T12:11:47;145397.44;;;15.40;81.51
5877;BME280;2964;42.144;24.730;2023-03-22T12:14:21;145360.88;;;15.25;79.94
5877;BME280;2964;42.144;24.730;2023-03-22T12:16:51;145341.97;;;15.17;79.08
5877;BME280;2964;42.144;24.730;2023-03-22T12:19:27;145389.91;;;15.37;81.47
5877;BME280;2964;42.144;24.730;2023-03-22T12:21:58;145393.69;;;15.38;81.29
5877;BME280;2964;42.144;24.730;2023-03-22T12:24:28;145440.31;;;15.57;81.64
5877;BME280;2964;42.144;24.730;2023-03-22T12:26:59;145485.78;;;15.76;80.94
5877;BME280;2964;42.144;24.730;2023-03-22T12:29:32;145518.56;;;15.89;84.21
5877;BME280;2964;42.144;24.730;2023-03-22T12:32:02;145543.81;;;15.99;83.28
5877;BME280;2964;42.144;24.730;2023-03-22T12:34:35;145584.16;;;16.16;81.57
5877;BME280;2964;42.144;24.730;2023-03-22T12:37:06;145561.47;;;16.07;82.38
5877;BME280;2964;42.144;24.730;2023-03-22T12:39:37;145594.25;;;16.20;81.66
5877;BME280;2964;42.144;24.730;2023-03-22T12:42:12;145552.63;;;16.03;83.18
5877;BME280;2964;42.144;24.730;2023-03-22T12:44:45;145521.09;;;15.90;80.74
5877;BME280;2964;42.144;24.730;2023-03-22T12:47:17;145422.66;;;15.50;83.26
5877;BME280;2964;42.144;24.730;2023-03-22T12:49:51;145480.72;;;15.74;81.39
5877;BME280;2964;42.144;24.730;2023-03-22T12:52:24;145466.81;;;15.68;79.50
5877;BME280;2964;42.144;24.730;2023-03-22T12:54:53;145430.25;;;15.53;81.06
5877;BME280;2964;42.144;24.730;2023-03-22T12:57:21;145475.66;;;15.72;80.55
5877;BME280;2964;42.144;24.730;2023-03-22T12:59:50;145460.47;;;15.66;80.00
5877;BME280;2964;42.144;24.730;2023-03-22T13:02:22;145561.47;;;16.07;76.48
5877;BME280;2964;42.144;24.730;2023-03-22T13:04:53;145532.44;;;15.95;76.48
5877;BME280;2964;42.144;24.730;2023-03-22T13:07:37;145574.03;;;16.12;76.93